Time;durP1;ratioP1;P1;durP2;ratioP2;P2;SDS_P1;SDS_P2;PMS_P1;PMS_P2;Temp;Humidity;BMP_temperature;BMP_pressure;BME280_temperature;BME280_humidity;BME280_pressure;Samples;Min_cycle;Max_cycle;Signal;HPM_P1;HPM_P2
2023/05/24 00:00:29;;;;;;;2.42;1.50;;;;;;;;;;5096068;28;20470;-61
2023/05/24 00:02:56;;;;;;;5.85;1.95;;;;;;;;;;5095916;28;20021;-61
2023/05/24 00:05:23;;;;;;;3.13;1.90;;;;;;;;;;5095757;28;20028;-61
2023/05/24 00:07:50;;;;;;;8.35;2.13;;;;;;;;;;5095643;28;20099;-61
2023/05/24 00:10:17;;;;;;;23.67;1.55;;;;;;;;;;5090662;28;20022;-61
2023/05/24 00:12:43;;;;;;;2.80;1.73;;;;;;;;;;5090756;28;20059;-61
2023/05/24 00:15:10;;;;;;;2.25;1.30;;;;;;;;;;5090982;28;20024;-61
2023/05/24 00:17:39;;;;;;;2.03;1.30;;;;;;;;;;5090717;28;20732;-61
2023/05/24 00:20:09;;;;;;;2.65;1.48;;;;;;;;;;5095452;28;20031;-61
2023/05/24 00:22:36;;;;;;;2.78;1.58;;;;;;;;;;5095264;28;20046;-61
2023/05/24 00:25:04;;;;;;;2.75;1.73;;;;;;;;;;5095468;28;20024;-61
2023/05/24 00:27:31;;;;;;;3.05;1.92;;;;;;;;;;5095519;28;20024;-61
2023/05/24 00:29:58;;;;;;;3.38;1.95;;;;;;;;;;5095530;28;20043;-61
2023/05/24 00:32:25;;;;;;;6.22;1.42;;;;;;;;;;5090366;28;20036;-62
2023/05/24 00:34:52;;;;;;;2.72;1.58;;;;;;;;;;5090459;28;20028;-61
2023/05/24 00:37:18;;;;;;;2.35;1.70;;;;;;;;;;5090545;28;20722;-61
2023/05/24 00:39:45;;;;;;;3.70;1.73;;;;;;;;;;5090224;28;20450;-61
2023/05/24 00:42:12;;;;;;;3.30;2.05;;;;;;;;;;5094395;28;20047;-61
2023/05/24 00:44:39;;;;;;;5.22;2.03;;;;;;;;;;5095390;28;20544;-61
2023/05/24 00:47:05;;;;;;;2.55;1.50;;;;;;;;;;5095092;28;20099;-61
2023/05/24 00:49:32;;;;;;;2.22;1.77;;;;;;;;;;5095199;28;20055;-61
2023/05/24 00:51:59;;;;;;;2.35;1.60;;;;;;;;;;5095077;28;20020;-61
2023/05/24 00:54:26;;;;;;;3.70;2.13;;;;;;;;;;5090544;28;20058;-61
2023/05/24 00:56:53;;;;;;;3.55;2.45;;;;;;;;;;5089326;28;20035;-61
2023/05/24 00:59:20;;;;;;;8.52;3.20;;;;;;;;;;5089840;28;20059;-61
2023/05/24 01:01:47;;;;;;;6.43;2.88;;;;;;;;;;5089925;28;20482;-61
2023/05/24 01:04:16;;;;;;;3.83;2.55;;;;;;;;;;5093223;28;20539;-61
2023/05/24 01:06:52;;;;;;;3.83;2.60;;;;;;;;;;5094851;28;20020;-61
2023/05/24 01:09:37;;;;;;;3.70;2.70;;;;;;;;;;5094741;28;20028;-61
2023/05/24 01:12:07;;;;;;;4.53;3.17;;;;;;;;;;5094782;28;20054;-61
2023/05/24 01:14:52;;;;;;;4.18;2.83;;;;;;;;;;5094827;28;20024;-61
2023/05/24 01:17:23;;;;;;;4.93;2.92;;;;;;;;;;5089581;28;20095;-61
2023/05/24 01:19:49;;;;;;;6.47;3.17;;;;;;;;;;5089388;28;20572;-62
2023/05/24 01:22:28;;;;;;;5.10;3.38;;;;;;;;;;5089489;28;20170;-61
2023/05/24 01:25:18;;;;;;;4.65;3.00;;;;;;;;;;5089635;28;20125;-61
2023/05/24 01:27:46;;;;;;;4.82;3.10;;;;;;;;;;5069680;28;20111;-61
2023/05/24 01:30:14;;;;;;;4.22;3.13;;;;;;;;;;5094076;28;20024;-61
2023/05/24 01:32:40;;;;;;;5.65;3.72;;;;;;;;;;5093581;28;20020;-61
2023/05/24 01:35:07;;;;;;;6.00;3.72;;;;;;;;;;5080969;28;20020;-61
2023/05/24 01:37:34;;;;;;;5.20;3.28;;;;;;;;;;5093557;28;20482;-61
2023/05/24 01:40:01;;;;;;;5.10;3.30;;;;;;;;;;5085198;28;20111;-61
2023/05/24 01:42:36;;;;;;;4.28;2.70;;;;;;;;;;5089353;28;20020;-62
2023/05/24 01:45:10;;;;;;;4.05;2.75;;;;;;;;;;5089351;28;20028;-61
2023/05/24 01:47:37;;;;;;;5.03;3.85;;;;;;;;;;5089558;28;20028;-61
2023/05/24 01:50:07;;;;;;;20.17;3.95;;;;;;;;;;5094112;28;20024;-61
2023/05/24 01:52:35;;;;;;;17.17;2.80;;;;;;;;;;5094076;28;20020;-61
2023/05/24 01:55:02;;;;;;;6.17;2.70;;;;;;;;;;5093973;28;20024;-61
2023/05/24 01:57:30;;;;;;;5.33;2.60;;;;;;;;;;5090882;28;20035;-61
2023/05/24 01:59:57;;;;;;;4.87;3.27;;;;;;;;;;5081634;28;20472;-61
2023/05/24 02:02:24;;;;;;;3.67;2.53;;;;;;;;;;5088726;28;20038;-61
2023/05/24 02:04:51;;;;;;;14.47;3.57;;;;;;;;;;5072751;28;20017;-61
2023/05/24 02:07:18;;;;;;;3.97;2.90;;;;;;;;;;5068107;28;20047;-61
2023/05/24 02:09:45;;;;;;;11.17;3.90;;;;;;;;;;5068475;28;20020;-60
2023/05/24 02:12:15;;;;;;;5.57;3.67;;;;;;;;;;5073215;28;20078;-61
2023/05/24 02:14:42;;;;;;;4.47;3.20;;;;;;;;;;5073591;28;20020;-61
2023/05/24 02:17:08;;;;;;;5.97;3.83;;;;;;;;;;5090196;28;20020;-61
2023/05/24 02:19:36;;;;;;;5.40;3.03;;;;;;;;;;5093161;28;20463;-62
2023/05/24 02:22:03;;;;;;;4.37;3.27;;;;;;;;;;5093325;28;20521;-61
2023/05/24 02:24:30;;;;;;;13.20;3.53;;;;;;;;;;5088359;28;20035;-61
2023/05/24 02:26:57;;;;;;;4.83;3.07;;;;;;;;;;5088345;28;20028;-61
2023/05/24 02:29:24;;;;;;;4.73;2.93;;;;;;;;;;5088254;28;20494;-62
2023/05/24 02:31:55;;;;;;;4.07;2.90;;;;;;;;;;5088277;28;20028;-61
2023/05/24 02:34:22;;;;;;;3.87;2.70;;;;;;;;;;5092740;28;20028;-61
2023/05/24 02:36:50;;;;;;;3.83;2.63;;;;;;;;;;5092986;28;20028;-61
2023/05/24 02:39:17;;;;;;;5.00;3.80;;;;;;;;;;5092634;28;20490;-61
2023/05/24 02:41:44;;;;;;;3.27;2.53;;;;;;;;;;5093084;28;20028;-61
2023/05/24 02:44:11;;;;;;;6.27;3.93;;;;;;;;;;5093137;28;20387;-61
2023/05/24 02:46:37;;;;;;;10.00;5.07;;;;;;;;;;5088127;28;20032;-61
2023/05/24 02:49:04;;;;;;;5.70;3.63;;;;;;;;;;5088052;28;20154;-61
2023/05/24 02:51:31;;;;;;;10.00;4.10;;;;;;;;;;5088052;28;20046;-61
2023/05/24 02:53:58;;;;;;;2.63;2.17;;;;;;;;;;5087555;28;20383;-61
2023/05/24 02:56:25;;;;;;;5.13;3.63;;;;;;;;;;5091641;28;20028;-61
2023/05/24 02:58:53;;;;;;;7.43;2.97;;;;;;;;;;5092972;28;20012;-61
2023/05/24 03:01:20;;;;;;;6.83;3.87;;;;;;;;;;5092798;28;20035;-61
2023/05/24 03:03:47;;;;;;;4.50;2.60;;;;;;;;;;5092595;28;20032;-61
2023/05/24 03:06:14;;;;;;;3.27;1.73;;;;;;;;;;5092956;28;20017;-60
2023/05/24 03:08:41;;;;;;;5.97;3.30;;;;;;;;;;5088685;28;20024;-61
2023/05/24 03:11:08;;;;;;;6.20;3.10;;;;;;;;;;5087351;28;20111;-61
2023/05/24 03:13:34;;;;;;;4.23;2.77;;;;;;;;;;5087694;28;20031;-60
2023/05/24 03:16:01;;;;;;;15.63;3.23;;;;;;;;;;5087608;28;20058;-61
2023/05/24 03:18:28;;;;;;;3.20;1.87;;;;;;;;;;5090052;28;20031;-61
2023/05/24 03:20:54;;;;;;;6.40;2.70;;;;;;;;;;5092264;28;20081;-61
2023/05/24 03:23:21;;;;;;;4.77;3.40;;;;;;;;;;5092602;28;20024;-60
2023/05/24 03:25:48;;;;;;;3.83;2.47;;;;;;;;;;5092521;28;20028;-61
2023/05/24 03:28:15;;;;;;;4.37;2.83;;;;;;;;;;5092478;28;20390;-61
2023/05/24 03:30:41;;;;;;;9.53;3.70;;;;;;;;;;5088891;28;20535;-61
2023/05/24 03:33:08;;;;;;;5.63;3.90;;;;;;;;;;5087504;28;20035;-61
2023/05/24 03:35:35;;;;;;;6.40;3.30;;;;;;;;;;5087317;28;20035;-61
2023/05/24 03:38:02;;;;;;;4.03;2.83;;;;;;;;;;5087334;28;20031;-61
2023/05/24 03:40:31;;;;;;;3.20;2.57;;;;;;;;;;5089702;28;20021;-61
2023/05/24 03:42:58;;;;;;;4.20;2.73;;;;;;;;;;5092422;28;20101;-61
2023/05/24 03:45:24;;;;;;;8.77;3.53;;;;;;;;;;5092445;28;20028;-61
2023/05/24 03:47:51;;;;;;;2.70;2.10;;;;;;;;;;5091993;28;20032;-61
2023/05/24 03:50:18;;;;;;;4.43;3.30;;;;;;;;;;5092549;28;20496;-61
2023/05/24 03:52:46;;;;;;;2.77;2.20;;;;;;;;;;5089722;28;20355;-61
2023/05/24 03:55:13;;;;;;;8.07;3.00;;;;;;;;;;5087206;28;20031;-61
2023/05/24 03:57:41;;;;;;;5.30;2.70;;;;;;;;;;5087260;28;20024;-61
2023/05/24 04:00:09;;;;;;;3.60;2.87;;;;;;;;;;5086956;28;20039;-61
2023/05/24 04:02:36;;;;;;;6.03;3.77;;;;;;;;;;5089201;28;20455;-61
2023/05/24 04:05:04;;;;;;;4.67;3.10;;;;;;;;;;5091837;28;20024;-61
2023/05/24 04:07:32;;;;;;;5.57;3.60;;;;;;;;;;5092220;28;20028;-61
2023/05/24 04:09:59;;;;;;;8.93;3.10;;;;;;;;;;5092124;28;20031;-61
2023/05/24 04:12:26;;;;;;;6.60;3.20;;;;;;;;;;5091756;28;20111;-61
2023/05/24 04:14:53;;;;;;;4.67;3.20;;;;;;;;;;5089817;28;20447;-61
2023/05/24 04:17:23;;;;;;;4.07;3.03;;;;;;;;;;5086990;28;20032;-61
2023/05/24 04:19:50;;;;;;;4.37;3.07;;;;;;;;;;5087026;28;20036;-61
2023/05/24 04:22:17;;;;;;;3.80;2.87;;;;;;;;;;5086653;28;20085;-61
2023/05/24 04:24:45;;;;;;;6.77;3.10;;;;;;;;;;5088361;28;20020;-61
2023/05/24 04:27:11;;;;;;;3.73;2.97;;;;;;;;;;5092037;28;20065;-61
2023/05/24 04:29:41;;;;;;;5.50;2.97;;;;;;;;;;5093062;28;20054;-60
2023/05/24 04:32:09;;;;;;;12.20;2.43;;;;;;;;;;5095613;28;20027;-61
2023/05/24 04:34:36;;;;;;;4.47;3.10;;;;;;;;;;5095714;28;20020;-61
2023/05/24 04:37:03;;;;;;;19.83;2.67;;;;;;;;;;5093899;28;20470;-61
2023/05/24 04:39:30;;;;;;;6.27;2.57;;;;;;;;;;5089712;28;20387;-61
2023/05/24 04:41:57;;;;;;;5.33;3.30;;;;;;;;;;5090523;28;20031;-61
2023/05/24 04:44:24;;;;;;;3.20;2.40;;;;;;;;;;5090426;28;20057;-61
2023/05/24 04:46:50;;;;;;;4.80;2.73;;;;;;;;;;5091210;28;20024;-61
2023/05/24 04:49:18;;;;;;;7.47;4.27;;;;;;;;;;5095201;28;20028;-61
2023/05/24 04:51:45;;;;;;;4.57;2.63;;;;;;;;;;5095443;28;20032;-61
2023/05/24 04:54:12;;;;;;;5.00;3.63;;;;;;;;;;5095216;28;20047;-61
2023/05/24 04:56:38;;;;;;;11.73;3.20;;;;;;;;;;5094685;28;20020;-60
2023/05/24 04:59:06;;;;;;;3.17;2.03;;;;;;;;;;5093951;28;20024;-61
2023/05/24 05:01:32;;;;;;;3.20;2.40;;;;;;;;;;5089796;28;20028;-61
2023/05/24 05:03:59;;;;;;;4.30;2.67;;;;;;;;;;5089674;28;20103;-61
2023/05/24 05:06:26;;;;;;;3.97;2.63;;;;;;;;;;5089852;28;20032;-61
2023/05/24 05:08:53;;;;;;;3.60;2.90;;;;;;;;;;5089730;28;20063;-61
2023/05/24 05:11:20;;;;;;;3.53;2.50;;;;;;;;;;5094472;28;20452;-60
2023/05/24 05:13:47;;;;;;;4.83;3.50;;;;;;;;;;5093368;28;20413;-61
2023/05/24 05:16:13;;;;;;;5.10;3.63;;;;;;;;;;5093511;28;20381;-63
2023/05/24 05:18:40;;;;;;;4.63;3.43;;;;;;;;;;5091721;28;20024;-61
2023/05/24 05:21:07;;;;;;;5.90;3.33;;;;;;;;;;5086614;28;20036;-61
2023/05/24 05:23:35;;;;;;;5.00;3.20;;;;;;;;;;5086605;28;20023;-61
2023/05/24 05:26:01;;;;;;;7.60;2.77;;;;;;;;;;5089491;28;20074;-61
2023/05/24 05:28:28;;;;;;;4.80;3.20;;;;;;;;;;5078197;28;20403;-61
2023/05/24 05:30:55;;;;;;;16.27;4.20;;;;;;;;;;5069105;28;20107;-61
2023/05/24 05:33:22;;;;;;;3.73;2.97;;;;;;;;;;5055712;28;20031;-61
2023/05/24 05:35:49;;;;;;;7.53;3.23;;;;;;;;;;5073947;28;20127;-60
2023/05/24 05:38:16;;;;;;;9.90;3.77;;;;;;;;;;5073748;28;20047;-61
2023/05/24 05:40:42;;;;;;;8.33;3.80;;;;;;;;;;5091132;28;20509;-60
2023/05/24 05:43:09;;;;;;;7.90;3.83;;;;;;;;;;5093928;28;20496;-61
2023/05/24 05:45:36;;;;;;;6.83;3.80;;;;;;;;;;5089224;28;20028;-61
2023/05/24 05:48:03;;;;;;;3.63;2.57;;;;;;;;;;5089105;28;20024;-61
2023/05/24 05:50:30;;;;;;;10.20;4.20;;;;;;;;;;5088892;28;20038;-61
2023/05/24 05:52:56;;;;;;;5.83;3.63;;;;;;;;;;5088837;28;20134;-61
2023/05/24 05:55:24;;;;;;;5.63;3.63;;;;;;;;;;5093052;28;20032;-61
2023/05/24 05:57:50;;;;;;;4.73;3.10;;;;;;;;;;5094098;28;20097;-60
2023/05/24 06:00:17;;;;;;;6.07;3.33;;;;;;;;;;5093876;28;20032;-61
2023/05/24 06:02:44;;;;;;;8.27;4.43;;;;;;;;;;5093891;28;20028;-60
2023/05/24 06:05:11;;;;;;;9.70;5.17;;;;;;;;;;5093864;28;20027;-61
2023/05/24 06:07:38;;;;;;;7.00;4.77;;;;;;;;;;5089192;28;20062;-60
2023/05/24 06:10:05;;;;;;;7.67;5.13;;;;;;;;;;5088727;28;20028;-61
2023/05/24 06:12:32;;;;;;;6.30;3.67;;;;;;;;;;5088459;28;20382;-60
2023/05/24 06:14:59;;;;;;;5.53;3.87;;;;;;;;;;5088676;28;20102;-61
2023/05/24 06:17:27;;;;;;;8.33;4.53;;;;;;;;;;5092146;28;20073;-61
2023/05/24 06:19:54;;;;;;;4.53;3.37;;;;;;;;;;5093537;28;20032;-60
2023/05/24 06:22:21;;;;;;;5.87;3.67;;;;;;;;;;5093283;28;20447;-60
2023/05/24 06:24:48;;;;;;;4.97;4.17;;;;;;;;;;5093279;28;20107;-60
2023/05/24 06:27:15;;;;;;;6.70;4.00;;;;;;;;;;5093556;28;20024;-61
2023/05/24 06:29:42;;;;;;;5.33;3.90;;;;;;;;;;5089528;28;20047;-60
2023/05/24 06:32:09;;;;;;;6.57;3.97;;;;;;;;;;5088077;28;20024;-60
2023/05/24 06:34:36;;;;;;;6.37;3.90;;;;;;;;;;5088184;28;20039;-61
2023/05/24 06:37:02;;;;;;;6.50;4.53;;;;;;;;;;5088322;28;20043;-61
2023/05/24 06:39:29;;;;;;;9.17;3.57;;;;;;;;;;5091057;28;20024;-60
2023/05/24 06:41:58;;;;;;;4.47;3.17;;;;;;;;;;5092904;28;20020;-60
2023/05/24 06:44:32;;;;;;;6.10;4.40;;;;;;;;;;5093233;28;20020;-60
2023/05/24 06:46:59;;;;;;;4.60;3.17;;;;;;;;;;5092921;28;20020;-60
2023/05/24 06:49:26;;;;;;;4.47;3.03;;;;;;;;;;5093088;28;20390;-60
2023/05/24 06:51:53;;;;;;;5.90;3.40;;;;;;;;;;5089507;28;20047;-60
2023/05/24 06:54:20;;;;;;;18.37;3.80;;;;;;;;;;5087216;28;20360;-61
2023/05/24 06:56:47;;;;;;;6.20;4.27;;;;;;;;;;5087466;28;20028;-61
2023/05/24 06:59:14;;;;;;;18.10;4.20;;;;;;;;;;5087809;28;20024;-60
2023/05/24 07:01:41;;;;;;;7.13;3.97;;;;;;;;;;5090571;28;20352;-60
2023/05/24 07:04:11;;;;;;;7.40;4.97;;;;;;;;;;5092667;28;20024;-61
2023/05/24 07:06:38;;;;;;;7.23;4.87;;;;;;;;;;5092818;28;20470;-60
2023/05/24 07:09:06;;;;;;;13.77;4.00;;;;;;;;;;5092547;28;20020;-60
2023/05/24 07:11:32;;;;;;;10.27;5.00;;;;;;;;;;5091795;28;20034;-60
2023/05/24 07:13:59;;;;;;;16.23;4.20;;;;;;;;;;5089629;28;20020;-60
2023/05/24 07:16:26;;;;;;;7.20;4.77;;;;;;;;;;5087544;28;20092;-60
2023/05/24 07:18:53;;;;;;;5.63;3.80;;;;;;;;;;5087646;28;20032;-60
2023/05/24 07:21:20;;;;;;;5.20;3.60;;;;;;;;;;5087496;28;20039;-60
2023/05/24 07:23:47;;;;;;;5.77;3.93;;;;;;;;;;5089824;28;20077;-60
2023/05/24 07:26:13;;;;;;;8.77;3.27;;;;;;;;;;5092445;28;20051;-60
2023/05/24 07:28:40;;;;;;;6.07;3.57;;;;;;;;;;5092369;28;20032;-60
2023/05/24 07:31:08;;;;;;;6.77;3.30;;;;;;;;;;5092595;28;20020;-60
2023/05/24 07:33:38;;;;;;;4.83;3.83;;;;;;;;;;5092352;28;20032;-60
2023/05/24 07:36:05;;;;;;;3.57;3.00;;;;;;;;;;5090059;28;20086;-60
2023/05/24 07:38:33;;;;;;;6.47;3.73;;;;;;;;;;5087504;28;20466;-60
2023/05/24 07:41:02;;;;;;;6.67;4.60;;;;;;;;;;5087381;28;20123;-61
2023/05/24 07:43:29;;;;;;;6.17;3.67;;;;;;;;;;5087472;28;20104;-60
2023/05/24 07:45:55;;;;;;;6.43;4.33;;;;;;;;;;5088723;28;20020;-60
2023/05/24 07:48:23;;;;;;;6.57;4.60;;;;;;;;;;5092379;28;20078;-60
2023/05/24 07:50:51;;;;;;;6.77;4.50;;;;;;;;;;5092295;28;20063;-60
2023/05/24 07:53:18;;;;;;;8.80;4.53;;;;;;;;;;5092278;28;20028;-60
2023/05/24 07:55:45;;;;;;;8.13;5.07;;;;;;;;;;5092068;28;20016;-60
2023/05/24 07:58:12;;;;;;;5.97;4.27;;;;;;;;;;5090161;28;20023;-60
2023/05/24 08:00:38;;;;;;;6.67;5.00;;;;;;;;;;5087225;28;20552;-60
2023/05/24 08:03:06;;;;;;;8.33;4.93;;;;;;;;;;5087067;28;20024;-60
2023/05/24 08:05:32;;;;;;;5.57;3.93;;;;;;;;;;5089773;28;20486;-60
2023/05/24 08:07:59;;;;;;;6.70;5.10;;;;;;;;;;5092409;28;20024;-60
2023/05/24 08:10:26;;;;;;;8.10;4.87;;;;;;;;;;5096154;28;20165;-60
2023/05/24 08:12:54;;;;;;;3.97;3.40;;;;;;;;;;5095794;28;20035;-60
2023/05/24 08:15:21;;;;;;;6.83;3.73;;;;;;;;;;5095878;28;20043;-61
2023/05/24 08:17:48;;;;;;;6.80;3.77;;;;;;;;;;5095973;28;20486;-60
2023/05/24 08:20:16;;;;;;;9.30;4.53;;;;;;;;;;5094061;28;20573;-60
2023/05/24 08:22:43;;;;;;;7.70;5.73;;;;;;;;;;5090761;28;20036;-61
2023/05/24 08:25:10;;;;;;;8.80;4.93;;;;;;;;;;5090770;28;20024;-60
2023/05/24 08:27:37;;;;;;;8.17;3.83;;;;;;;;;;5090882;28;20493;-60
2023/05/24 08:30:04;;;;;;;8.10;5.47;;;;;;;;;;5091224;28;20441;-60
2023/05/24 08:32:31;;;;;;;7.20;4.70;;;;;;;;;;5095539;28;20119;-60
2023/05/24 08:34:57;;;;;;;6.67;4.47;;;;;;;;;;5095339;28;20023;-60
2023/05/24 08:37:24;;;;;;;5.40;4.60;;;;;;;;;;5095329;28;20023;-60
2023/05/24 08:39:51;;;;;;;5.60;3.43;;;;;;;;;;5095561;28;20028;-60
2023/05/24 08:42:17;;;;;;;5.53;3.33;;;;;;;;;;5094607;28;20028;-60
2023/05/24 08:44:48;;;;;;;4.80;3.40;;;;;;;;;;5090359;28;20036;-60
2023/05/24 08:47:15;;;;;;;10.67;4.57;;;;;;;;;;5090160;28;20115;-60
2023/05/24 08:49:42;;;;;;;8.57;5.40;;;;;;;;;;5090412;28;20028;-61
2023/05/24 08:52:10;;;;;;;7.00;4.07;;;;;;;;;;5089991;28;20017;-60
2023/05/24 08:54:37;;;;;;;10.77;5.87;;;;;;;;;;5095372;28;20103;-60
2023/05/24 08:57:04;;;;;;;9.13;4.87;;;;;;;;;;5095234;28;20019;-60
2023/05/24 08:59:31;;;;;;;6.83;4.10;;;;;;;;;;5094946;28;20032;-60
2023/05/24 09:01:57;;;;;;;6.47;5.20;;;;;;;;;;5095148;28;20024;-60
2023/05/24 09:04:24;;;;;;;7.30;5.33;;;;;;;;;;5094551;28;20023;-60
2023/05/24 09:06:52;;;;;;;6.37;4.67;;;;;;;;;;5089853;28;20107;-60
2023/05/24 09:09:21;;;;;;;15.60;7.00;;;;;;;;;;5089838;28;20603;-60
2023/05/24 09:11:49;;;;;;;11.33;5.97;;;;;;;;;;5089343;28;20074;-60
2023/05/24 09:14:16;;;;;;;8.33;6.33;;;;;;;;;;5089784;28;20035;-61
2023/05/24 09:16:43;;;;;;;7.87;5.37;;;;;;;;;;5093672;28;20438;-60
2023/05/24 09:19:10;;;;;;;6.60;3.97;;;;;;;;;;5094895;28;20032;-60
2023/05/24 09:21:37;;;;;;;4.40;3.70;;;;;;;;;;5094646;28;20032;-60
2023/05/24 09:24:07;;;;;;;8.47;4.50;;;;;;;;;;5094871;28;20343;-60
2023/05/24 09:26:36;;;;;;;8.47;5.00;;;;;;;;;;5094807;28;20024;-60
2023/05/24 09:29:06;;;;;;;15.47;5.70;;;;;;;;;;5089427;28;20025;-60
2023/05/24 09:31:36;;;;;;;6.20;4.40;;;;;;;;;;5089538;28;20028;-60
2023/05/24 09:34:03;;;;;;;9.40;5.50;;;;;;;;;;5089498;28;20024;-60
2023/05/24 09:36:32;;;;;;;10.03;5.67;;;;;;;;;;5089321;28;20387;-60
2023/05/24 09:39:08;;;;;;;6.57;5.20;;;;;;;;;;5094002;28;20371;-60
2023/05/24 09:41:39;;;;;;;6.73;3.87;;;;;;;;;;5094369;28;20043;-61
2023/05/24 09:44:06;;;;;;;7.27;4.90;;;;;;;;;;5094216;28;20154;-60
2023/05/24 09:46:37;;;;;;;4.27;3.53;;;;;;;;;;5094246;28;20500;-60
2023/05/24 09:49:05;;;;;;;10.63;5.60;;;;;;;;;;5093787;28;20490;-60
2023/05/24 09:51:34;;;;;;;10.70;6.97;;;;;;;;;;5088692;28;20028;-60
2023/05/24 09:54:01;;;;;;;9.40;5.17;;;;;;;;;;5089022;28;20028;-60
2023/05/24 09:56:29;;;;;;;8.83;5.37;;;;;;;;;;5089008;28;20672;-60
2023/05/24 09:58:56;;;;;;;6.40;3.97;;;;;;;;;;5088974;28;20020;-60
2023/05/24 10:01:25;;;;;;;8.20;5.03;;;;;;;;;;5093881;28;20054;-61
2023/05/24 10:03:55;;;;;;;6.87;4.77;;;;;;;;;;5094045;28;20165;-61
2023/05/24 10:06:22;;;;;;;6.50;4.03;;;;;;;;;;5093548;28;20023;-61
2023/05/24 10:08:53;;;;;;;5.93;4.10;;;;;;;;;;5093993;28;20020;-60
2023/05/24 10:11:20;;;;;;;9.40;4.90;;;;;;;;;;5093202;28;20102;-60
2023/05/24 10:13:47;;;;;;;7.77;5.03;;;;;;;;;;5088538;28;20024;-62
2023/05/24 10:16:15;;;;;;;6.33;5.40;;;;;;;;;;5088693;28;20026;-60
2023/05/24 10:18:42;;;;;;;6.30;4.67;;;;;;;;;;5088566;28;20532;-60
2023/05/24 10:21:10;;;;;;;5.47;3.90;;;;;;;;;;5088391;28;20035;-60
2023/05/24 10:23:38;;;;;;;7.93;5.40;;;;;;;;;;5093023;28;20098;-60
2023/05/24 10:26:07;;;;;;;11.57;4.87;;;;;;;;;;5093520;28;20105;-60
2023/05/24 10:28:35;;;;;;;8.60;5.20;;;;;;;;;;5093371;28;20536;-60
2023/05/24 10:31:11;;;;;;;6.90;5.07;;;;;;;;;;5093245;28;20039;-60
2023/05/24 10:33:38;;;;;;;3.67;3.07;;;;;;;;;;5092764;28;20020;-60
2023/05/24 10:36:06;;;;;;;6.77;5.07;;;;;;;;;;5088232;28;20412;-61
2023/05/24 10:38:33;;;;;;;5.63;4.10;;;;;;;;;;5088139;28;20055;-60
2023/05/24 10:41:00;;;;;;;5.93;4.67;;;;;;;;;;5088284;28;20038;-60
2023/05/24 10:43:26;;;;;;;23.60;5.60;;;;;;;;;;5088178;28;20024;-60
2023/05/24 10:45:53;;;;;;;8.60;5.00;;;;;;;;;;5092936;28;20023;-60
2023/05/24 10:48:29;;;;;;;6.27;4.63;;;;;;;;;;5092928;28;20028;-60
2023/05/24 10:50:56;;;;;;;8.87;4.77;;;;;;;;;;5092964;28;20433;-60
2023/05/24 10:53:26;;;;;;;5.70;4.70;;;;;;;;;;5092951;28;20499;-60
2023/05/24 10:55:57;;;;;;;6.27;4.73;;;;;;;;;;5092788;28;20024;-60
2023/05/24 10:58:29;;;;;;;7.67;4.83;;;;;;;;;;5087911;28;20105;-60
2023/05/24 11:00:56;;;;;;;9.20;4.67;;;;;;;;;;5087917;28;20082;-60
2023/05/24 11:03:23;;;;;;;10.47;7.07;;;;;;;;;;5087861;28;20028;-60
2023/05/24 11:05:50;;;;;;;8.00;5.73;;;;;;;;;;5087055;28;20031;-60
2023/05/24 11:08:34;;;;;;;7.83;5.07;;;;;;;;;;5092610;28;20115;-60
2023/05/24 11:11:15;;;;;;;7.27;5.63;;;;;;;;;;5092334;28;20036;-60
2023/05/24 11:13:42;;;;;;;6.47;4.80;;;;;;;;;;5092665;28;20107;-60
2023/05/24 11:16:10;;;;;;;10.60;5.77;;;;;;;;;;5092540;28;20028;-60
2023/05/24 11:18:38;;;;;;;7.97;6.13;;;;;;;;;;5091296;28;20060;-60
2023/05/24 11:21:08;;;;;;;9.50;6.43;;;;;;;;;;5087445;28;20390;-60
2023/05/24 11:23:36;;;;;;;9.60;6.90;;;;;;;;;;5087637;28;20386;-60
2023/05/24 11:26:03;;;;;;;6.13;4.17;;;;;;;;;;5087451;28;20051;-60
2023/05/24 11:28:29;;;;;;;5.70;3.97;;;;;;;;;;5088105;28;20150;-60
2023/05/24 11:30:56;;;;;;;11.23;6.10;;;;;;;;;;5091993;28;20020;-59
2023/05/24 11:33:24;;;;;;;21.60;5.50;;;;;;;;;;5092608;28;20023;-59
2023/05/24 11:35:51;;;;;;;8.90;4.47;;;;;;;;;;5092348;28;20048;-59
2023/05/24 11:38:19;;;;;;;21.53;7.80;;;;;;;;;;5092164;28;20498;-60
2023/05/24 11:40:47;;;;;;;5.47;4.10;;;;;;;;;;5094322;28;20394;-60
2023/05/24 11:43:18;;;;;;;11.33;5.90;;;;;;;;;;5091547;28;20012;-60
2023/05/24 11:45:47;;;;;;;4.50;3.43;;;;;;;;;;5091224;28;20111;-60
2023/05/24 11:48:14;;;;;;;6.63;5.53;;;;;;;;;;5091633;28;20028;-60
2023/05/24 11:50:41;;;;;;;10.13;6.30;;;;;;;;;;5091847;28;20421;-60
2023/05/24 11:53:11;;;;;;;7.10;6.03;;;;;;;;;;5096347;28;20024;-60
2023/05/24 11:55:41;;;;;;;7.37;4.73;;;;;;;;;;5095974;28;20073;-60
2023/05/24 11:58:14;;;;;;;18.30;4.57;;;;;;;;;;5096187;28;20035;-60
2023/05/24 12:00:42;;;;;;;10.40;7.23;;;;;;;;;;5096044;28;20402;-60
2023/05/24 12:03:09;;;;;;;10.20;5.20;;;;;;;;;;5095204;28;20031;-61
2023/05/24 12:05:37;;;;;;;5.90;4.83;;;;;;;;;;5091057;28;20028;-60
2023/05/24 12:08:04;;;;;;;8.27;4.67;;;;;;;;;;5091026;28;20491;-60
2023/05/24 12:10:34;;;;;;;6.17;4.50;;;;;;;;;;5090869;28;20182;-60
2023/05/24 12:13:01;;;;;;;9.03;6.73;;;;;;;;;;5091077;28;20080;-60
2023/05/24 12:15:28;;;;;;;8.73;6.33;;;;;;;;;;5095450;28;20020;-60
2023/05/24 12:17:54;;;;;;;7.53;5.07;;;;;;;;;;5095970;28;20030;-60
2023/05/24 12:20:22;;;;;;;6.07;4.93;;;;;;;;;;5095814;28;20399;-60
2023/05/24 12:22:50;;;;;;;9.00;6.57;;;;;;;;;;5095771;28;20423;-60
2023/05/24 12:25:20;;;;;;;11.83;6.40;;;;;;;;;;5094891;28;20035;-60
2023/05/24 12:27:48;;;;;;;9.53;5.53;;;;;;;;;;5090439;28;20016;-60
2023/05/24 12:30:22;;;;;;;11.73;6.53;;;;;;;;;;5090175;28;20463;-60
2023/05/24 12:32:49;;;;;;;13.65;6.53;;;;;;;;;;5090589;28;20349;-60
2023/05/24 12:35:20;;;;;;;6.97;5.53;;;;;;;;;;5090551;28;20036;-60
2023/05/24 12:37:48;;;;;;;9.03;6.03;;;;;;;;;;5095437;28;20107;-60
2023/05/24 12:40:22;;;;;;;12.60;7.17;;;;;;;;;;5095369;28;20036;-60
2023/05/24 12:42:56;;;;;;;11.32;7.20;;;;;;;;;;5094975;28;20099;-60
2023/05/24 12:45:27;;;;;;;13.90;7.18;;;;;;;;;;5095455;28;20314;-60
2023/05/24 12:47:58;;;;;;;12.13;6.90;;;;;;;;;;5093849;28;20032;-60
2023/05/24 12:50:25;;;;;;;8.63;6.50;;;;;;;;;;5090347;28;20123;-60
2023/05/24 12:52:53;;;;;;;9.97;6.87;;;;;;;;;;5090111;28;20097;-60
2023/05/24 12:55:20;;;;;;;9.03;7.17;;;;;;;;;;5089922;28;20375;-60
2023/05/24 12:57:52;;;;;;;21.10;5.67;;;;;;;;;;5090879;28;20035;-60
2023/05/24 13:00:19;;;;;;;14.97;7.47;;;;;;;;;;5094880;28;20532;-60
2023/05/24 13:02:46;;;;;;;12.20;6.97;;;;;;;;;;5095178;28;20520;-60
2023/05/24 13:05:13;;;;;;;9.80;6.93;;;;;;;;;;5094703;28;20017;-60
2023/05/24 13:07:40;;;;;;;8.50;6.10;;;;;;;;;;5094889;28;20028;-61
2023/05/24 13:10:07;;;;;;;9.70;7.20;;;;;;;;;;5093319;28;20020;-60
2023/05/24 13:12:34;;;;;;;9.63;6.97;;;;;;;;;;5089263;28;20062;-60
2023/05/24 13:15:01;;;;;;;11.03;6.63;;;;;;;;;;5089919;28;20031;-60
2023/05/24 13:17:28;;;;;;;9.47;6.80;;;;;;;;;;5089715;28;20020;-60
2023/05/24 13:19:56;;;;;;;8.47;5.97;;;;;;;;;;5090020;28;20032;-60
2023/05/24 13:22:23;;;;;;;11.60;6.33;;;;;;;;;;5094624;28;20012;-60
2023/05/24 13:24:50;;;;;;;14.53;7.13;;;;;;;;;;5094418;28;20035;-60
2023/05/24 13:27:16;;;;;;;9.43;6.30;;;;;;;;;;5094515;28;20348;-60
2023/05/24 13:29:44;;;;;;;7.83;5.97;;;;;;;;;;5094363;28;20026;-61
2023/05/24 13:32:11;;;;;;;7.50;5.73;;;;;;;;;;5093635;28;20185;-61
2023/05/24 13:34:38;;;;;;;10.60;7.73;;;;;;;;;;5089299;28;20556;-60
2023/05/24 13:37:06;;;;;;;18.70;7.50;;;;;;;;;;5089174;28;20082;-61
2023/05/24 13:39:34;;;;;;;8.10;6.93;;;;;;;;;;5089016;28;20039;-61
2023/05/24 13:42:01;;;;;;;8.90;6.43;;;;;;;;;;5089179;28;20027;-60
2023/05/24 13:44:28;;;;;;;9.93;7.20;;;;;;;;;;5093849;28;20402;-61
2023/05/24 13:46:55;;;;;;;7.53;5.97;;;;;;;;;;5094252;28;20471;-61
2023/05/24 13:49:22;;;;;;;10.90;7.23;;;;;;;;;;5093869;28;20510;-61
2023/05/24 13:51:48;;;;;;;21.87;7.53;;;;;;;;;;5094257;28;20020;-61
2023/05/24 13:54:16;;;;;;;13.00;7.80;;;;;;;;;;5093853;28;20020;-60
2023/05/24 13:56:43;;;;;;;8.63;6.27;;;;;;;;;;5088889;28;20032;-60
2023/05/24 13:59:13;;;;;;;12.30;8.13;;;;;;;;;;5088958;28;20379;-61
2023/05/24 14:01:40;;;;;;;9.80;7.40;;;;;;;;;;5088305;28;20025;-61
2023/05/24 14:04:07;;;;;;;13.40;7.17;;;;;;;;;;5088424;28;20051;-61
2023/05/24 14:06:33;;;;;;;9.83;5.80;;;;;;;;;;5093389;28;20028;-60
2023/05/24 14:09:00;;;;;;;45.83;9.10;;;;;;;;;;5093806;28;20032;-60
2023/05/24 14:11:30;;;;;;;9.80;7.17;;;;;;;;;;5093490;28;20024;-61
2023/05/24 14:13:57;;;;;;;9.10;6.93;;;;;;;;;;5093070;28;20111;-60
2023/05/24 14:16:24;;;;;;;9.40;6.50;;;;;;;;;;5092688;28;20039;-60
2023/05/24 14:18:51;;;;;;;16.93;7.40;;;;;;;;;;5087882;28;20352;-61
2023/05/24 14:21:18;;;;;;;7.67;6.23;;;;;;;;;;5088151;28;20024;-61
2023/05/24 14:23:44;;;;;;;11.50;8.43;;;;;;;;;;5087304;28;20020;-61
2023/05/24 14:26:11;;;;;;;10.10;7.10;;;;;;;;;;5088052;28;20490;-61
2023/05/24 14:28:38;;;;;;;8.50;6.17;;;;;;;;;;5092387;28;20039;-60
2023/05/24 14:31:04;;;;;;;11.20;6.93;;;;;;;;;;5093208;28;20059;-60
2023/05/24 14:33:31;;;;;;;31.77;8.83;;;;;;;;;;5093200;28;20391;-61
2023/05/24 14:35:58;;;;;;;9.60;6.70;;;;;;;;;;5092965;28;20020;-61
2023/05/24 14:38:24;;;;;;;9.63;6.77;;;;;;;;;;5093260;28;20024;-60
2023/05/24 14:40:51;;;;;;;13.77;8.30;;;;;;;;;;5088209;28;20478;-61
2023/05/24 14:43:18;;;;;;;18.83;8.23;;;;;;;;;;5087022;28;20031;-60